Strona główna
METAR-TAF:

METAR-TAF

Lotnisko :

Port lotniczy Bournemouth

Bournemouth, Anglia

Szerokość geograficzna: 50-47N, Długość geograficzna: 001-50W, wysokość: 11 m

Aktualna obserwacja pogody

Raport powstał 11 godziny i 36 minut temu, godzina 11:20 UTC
Wiatr 8 kt od wschodnio-południowy wschód
Temperatura 24°C
Wilgotność 31%
Ciśnienie 1022 hPa
Widzialność 10 km lub więcej
Brak chmur poniżej 1500 m i brak chmur cumulonimbus

METAR: EGHH 301120Z 12008KT CAVOK 24/06 Q1022

czas: 23:56 (22:56 UTC)

Prognoza

Raport powstał 14 godziny i 25 minut temu, godzina 08:31 UTC
Prognoza ważna od 30 godzina 09 UTC do 30 godzina 18 UTC
Wiatr 7 kt od wschodnio-północny wschód
Widzialność 10 km lub więcej
Brak chmur poniżej 1500 m i brak chmur cumulonimbus
Stopniowe zmiany
od 30 godzina 12 UTC do 30 godzina 15 UTC
Wiatr 10 kt od południowo-południowy wschód

TAF: EGHH 300831Z 3009/3018 06007KT CAVOK BECMG 3012/3015 16010KT

Obserwacja i prognoza pogody dla ponad 4000 lotnisk (raport METAR i TAF).

Dostępne stacje oznaczono żółtymi i czerwonymi punktami na mapie.

Najedź kursorem aby zobaczyć nazwę stacji.

Kliknij aby zobaczyć obserwacje i prognozy pogody.

Aby zmienić mapę: kliknij na zielony przycisk z czarnym krzyżykiem, aby powiększyć; na zielony przycisk z myślnikiem, aby pomniejszyć; na zielone strzałki, aby przejść do map sąsiednich.


METAR-TAF: